Aérodrome :
LOGIN :

S'inscrire | Disclaimer

   EN    FR    IT 

 










Légende :    VFR   VFR Marginal   IFR   IFR Intensif   IFR Très Intensif
Visi : 
Plafond : 
>= 8 km
>= 3000ft
5 à 8 km
1000 à 3000 ft
1500m à 5 km
500 à 1000 ft
800 à 1500m
200 à 500 ft
< 800m
< 200 ft
Symboles :   Orages  Brouillard  Fortes neiges  Fortes précipitations  Vent > 20 kt
SIGMETs :   Divers  Orages  Givrage  Turbulence  Onde Orograph.  Cendres Volcan.






- Altitude de l'aérodrome : 1161 ft
- Code IATA : RJL


LELO - Logroño-Agoncillo

DERNIER METAR :
  • 201130Z 28015KT 260V320 CAVOK 04/M03 Q1032

METARs EXPIRÉS :
  • 201100Z 29013KT 260V330 9999 FEW040 03/M03 Q1032
  • 201030Z 29013KT 9999 FEW040 03/M04 Q1033
  • 201000Z 28012KT 9999 FEW040 03/M03 Q1032
  • 200930Z 27011KT 9999 FEW040 02/M03 Q1032
  • 200900Z 29010KT 260V330 9999 FEW040 02/M04 Q1032

TAF TAF LELO
Valide du 20 à 12h jusqu'au 20 à 21h UTC


201100Z 2012/2021 29012KT 9999 SCT040
PROB40
TEMPO 2012/2021 29015G25KT



MET'MAP, la Météo Aéronautique d'un coup d'oeil ! - Copyright ORBIFLY Décembre 2007 - Disclaimer

ORBIFLY MET'MAP TEAM :

Programmation & Développement : Alexandra Zaïnal
Sur une idée originale de : Baudouin d'Aumeries
Assistance à la programmation : Marc-Olivier Méhu
Soutien technique & logistique : Manuel Goepfert

Contact : metmap@orbifly.com




SOURCES & CREDITS :

   NOAA